Weather reports worldwide

Advertisment
Sedona AZ, United States of America (2072454): temperature & dewpoint: 08.08.2020 00:00:00 - 14.08.2020 00:00:00 (MST)Sedona AZ, United States of America (2072454): wind speed: 08.08.2020 00:00:00 - 14.08.2020 00:00:00 (MST)Sedona AZ, United States of America (2072454): wind direction: 08.08.2020 00:00:00 - 14.08.2020 00:00:00 (MST)Sedona AZ, United States of America (2072454): visibility: 08.08.2020 00:00:00 - 14.08.2020 00:00:00 (MST)
Date & Time tt [°C] td [°C] ff [km/h] ff [kn] dd vv [km]
14.08.2020 00:00:00 27,0 6,0 15 8 NNE 16
13.08.2020 23:00:00 28,0 6,0 15 8 NNE 16
13.08.2020 22:00:00 29,0 6,0 15 8 NE 16
13.08.2020 21:00:00 30,0 6,0 15 8 NNE 16
13.08.2020 20:00:00 30,0 6,0 15 8 NNE 16
13.08.2020 19:00:00 31,0 6,0 21 11 NNW 16
13.08.2020 18:00:00 33,0 5,0 9 5 WNW 16
13.08.2020 17:00:00 35,0 5,0 0 0 N 16
13.08.2020 16:00:00 35,0 5,0 5 3 SSW 16
13.08.2020 15:00:00 33,0 5,0 34 18 SW 16
13.08.2020 14:00:00 35,0 4,0 9 5 W 16
13.08.2020 13:00:00 36,0 4,0 22 12 W 16
13.08.2020 12:00:00 36,0 5,0 11 6 S 16
13.08.2020 11:00:00 36,0 7,0 13 7 ESE 16
13.08.2020 10:00:00 35,0 6,0 13 7 S 16
13.08.2020 09:00:00 31,0 6,0 5 3 SW 16
13.08.2020 08:00:00 30,0 6,0 0 0 N 16
13.08.2020 07:00:00 27,0 5,0 5 3 ENE 16
13.08.2020 06:00:00 25,0 3,0 16 9 NE 16
13.08.2020 05:00:00 25,0 3,0 16 9 NNE 16
13.08.2020 04:00:00 25,0 4,0 16 9 N 16
13.08.2020 03:00:00 25,0 5,0 16 9 NNE 16
13.08.2020 02:00:00 26,0 5,0 15 8 NNE 16
13.08.2020 01:00:00 26,0 6,0 16 9 NNE 16
13.08.2020 00:00:00 27,0 6,0 21 11 NNE 16
12.08.2020 23:00:00 28,0 7,0 0 0 N 16
12.08.2020 22:00:00 30,0 7,0 0 0 N 16
12.08.2020 21:00:00 30,0 7,0 5 3 W 16
12.08.2020 20:00:00 31,0 6,0 11 6 W 16
12.08.2020 19:00:00 32,0 5,0 13 7 W 16
12.08.2020 18:00:00 35,0 5,0 15 8 W 16
12.08.2020 17:00:00 35,0 5,0 18 10 W 16
12.08.2020 16:00:00 36,0 5,0 22 12 WNW 16
12.08.2020 15:00:00 36,0 6,0 15 8 W 16
12.08.2020 14:00:00 36,0 7,0 11 6 SSW 16
12.08.2020 13:00:00 35,0 6,0 9 5 SW 16
12.08.2020 12:00:00 33,0 7,0 11 6 SSW 16
12.08.2020 11:00:00 32,0 8,0 0 0 N 16
12.08.2020 10:00:00 32,0 10,0 11 6 ESE 16
12.08.2020 09:00:00 30,0 10,0 5 3 SSE 16
12.08.2020 08:00:00 28,0 10,0 9 5 E 16
12.08.2020 07:00:00 25,0 8,0 15 8 NNE 16
12.08.2020 06:00:00 22,0 8,0 18 10 NNE 16
12.08.2020 05:00:00 23,0 8,0 16 9 NNE 16
12.08.2020 04:00:00 24,0 8,0 13 7 NNE 16
12.08.2020 03:00:00 25,0 9,0 0 0 N 16
12.08.2020 02:00:00 25,0 7,0 9 5 SE 16
12.08.2020 01:00:00 25,0 7,0 5 3 N 16
12.08.2020 00:00:00 26,0 7,0 5 3 SW 16
11.08.2020 23:00:00 27,0 7,0 9 5 WNW 16
11.08.2020 22:00:00 28,0 6,0 9 5 NW 16
11.08.2020 21:00:00 29,0 6,0 8 4 W 16
11.08.2020 20:00:00 30,0 6,0 16 9 W 16
11.08.2020 19:00:00 32,0 6,0 22 12 W 16
11.08.2020 18:00:00 33,0 6,0 16 9 WSW 16
11.08.2020 17:00:00 32,0 5,0 24 13 WSW 16
11.08.2020 16:00:00 36,0 6,0 13 7 WSW 16
11.08.2020 15:00:00 35,0 6,0 16 9 WSW 16
11.08.2020 14:00:00 33,0 5,0 0 0 N 16
11.08.2020 13:00:00 35,0 3,0 13 7 WSW 16
11.08.2020 12:00:00 33,0 3,0 9 5 S 16
11.08.2020 11:00:00 33,0 2,0 8 4 SSW 16
11.08.2020 10:00:00 33,0 2,0 8 4 S 16
11.08.2020 09:00:00 30,0 1,0 8 4 SSE 16
11.08.2020 08:00:00 27,0 2,0 5 3 SSE 16
11.08.2020 07:00:00 26,0 1,0 0 0 N 16
11.08.2020 06:00:00 22,0 0,0 11 6 NNE 16
11.08.2020 05:00:00 22,0 0,0 11 6 NNE 16
11.08.2020 04:00:00 24,0 -1,0 0 0 N 16
11.08.2020 03:00:00 24,0 -1,0 0 0 N 16
11.08.2020 02:00:00 25,0 -1,0 0 0 N 16
11.08.2020 01:00:00 26,0 -1,0 0 0 N 16
11.08.2020 00:00:00 27,0 -1,0 0 0 N 16
10.08.2020 23:00:00 26,0 -2,0 0 0 N 16
10.08.2020 22:00:00 27,0 -2,0 11 6 NW 16
10.08.2020 21:00:00 28,0 -3,0 11 6 WNW 16
10.08.2020 20:00:00 30,0 -5,0 16 9 W 16
10.08.2020 19:00:00 31,0 -5,0 29 16 W 16
10.08.2020 18:00:00 33,0 -4,0 13 7 SW 16
10.08.2020 17:00:00 34,0 -4,0 24 13 W 16
10.08.2020 16:00:00 36,0 -3,0 21 11 WSW 16
10.08.2020 15:00:00 36,0 -4,0 16 9 S 16
10.08.2020 14:00:00 36,0 -3,0 8 4 W 16
10.08.2020 13:00:00 36,0 -3,0 15 8 S 16
10.08.2020 12:00:00 36,0 -2,0 11 6 SSW 16
10.08.2020 11:00:00 35,0 1,0 24 13 SSE 16
10.08.2020 10:00:00 34,0 0,0 11 6 S 16
10.08.2020 09:00:00 30,0 0,0 0 0 N 16
10.08.2020 08:00:00 27,0 0,0 5 3 ESE 16
10.08.2020 07:00:00 25,0 -1,0 9 5 SSE 16
10.08.2020 06:00:00 22,0 -2,0 24 13 NNE 16
10.08.2020 05:00:00 22,0 -2,0 11 6 NNE 16
10.08.2020 04:00:00 22,0 -2,0 26 14 NNE 16
10.08.2020 03:00:00 23,0 -1,0 18 10 NNE 16
10.08.2020 02:00:00 23,0 -1,0 18 10 NNE 16
10.08.2020 01:00:00 24,0 -1,0 13 7 NNE 16
10.08.2020 00:00:00 25,0 -1,0 16 9 NNE 16
09.08.2020 23:00:00 26,0 -1,0 11 6 NNE 16
09.08.2020 22:00:00 28,0 -2,0 5 3 WNW 16
09.08.2020 21:00:00 29,0 -1,0 0 0 N 16
09.08.2020 20:00:00 30,0 -1,0 5 3 WSW 16
09.08.2020 19:00:00 32,0 -1,0 13 7 W 16
09.08.2020 18:00:00 33,0 0,0 9 5 S 16
09.08.2020 17:00:00 35,0 0,0 11 6 SW 16
09.08.2020 16:00:00 35,0 1,0 18 10 SSW 16
09.08.2020 15:00:00 36,0 2,0 13 7 SSW 16
09.08.2020 14:00:00 37,0 2,0 22 12 SSW 16
09.08.2020 13:00:00 35,0 2,0 15 8 SW 16
09.08.2020 12:00:00 35,0 3,0 21 11 SW 16
09.08.2020 11:00:00 33,0 2,0 9 5 WSW 16
09.08.2020 10:00:00 32,0 1,0 5 3 S 16
09.08.2020 09:00:00 30,0 2,0 9 5 SSE 16
09.08.2020 08:00:00 27,0 1,0 0 0 N 16
09.08.2020 07:00:00 23,0 0,0 16 9 N 16
09.08.2020 06:00:00 22,0 0,0 21 11 NNE 16
09.08.2020 05:00:00 22,0 0,0 24 13 NNE 16
09.08.2020 04:00:00 22,0 1,0 22 12 NNE 16
09.08.2020 03:00:00 23,0 1,0 21 11 NNE 16
09.08.2020 02:00:00 23,0 1,0 18 10 NNE 16
09.08.2020 01:00:00 23,0 1,0 15 8 NNE 16
09.08.2020 00:00:00 25,0 1,0 11 6 NNE 16
08.08.2020 23:00:00 26,0 2,0 9 5 NNE 16
08.08.2020 22:00:00 27,0 2,0 0 0 N 16
08.08.2020 21:00:00 29,0 2,0 0 0 N 16
08.08.2020 20:00:00 30,0 2,0 5 3 SW 16
08.08.2020 19:00:00 31,0 3,0 15 8 SSW 16
08.08.2020 18:00:00 32,0 2,0 13 7 SW 16
08.08.2020 17:00:00 35,0 2,0 5 3 SSW 16
08.08.2020 16:00:00 35,0 1,0 15 8 SW 16
08.08.2020 15:00:00 37,0 0,0 15 8 SE 16
08.08.2020 14:00:00 36,0 1,0 13 7 SSW 16
08.08.2020 13:00:00 36,0 4,0 29 16 S 16
08.08.2020 12:00:00 35,0 6,0 13 7 SW 16
08.08.2020 11:00:00 33,0 5,0 11 6 SSE 16
08.08.2020 10:00:00 32,0 7,0 8 4 SSE 16
08.08.2020 09:00:00 30,0 6,0 0 0 N 16
08.08.2020 08:00:00 28,0 5,0 5 3 ENE 16
08.08.2020 07:00:00 23,0 5,0 18 10 NNE 16
08.08.2020 06:00:00 22,0 5,0 18 10 NNE 16
08.08.2020 05:00:00 21,0 6,0 16 9 NNE 16
08.08.2020 04:00:00 22,0 6,0 18 10 NNE 16
08.08.2020 03:00:00 22,0 6,0 18 10 NNE 16
08.08.2020 02:00:00 23,0 7,0 15 8 NNE 16
08.08.2020 01:00:00 25,0 7,0 8 4 NNE 16
08.08.2020 00:00:00 25,0 7,0 5 3 S 16

tt = temperature
td = dewpoint
ff = wind speed
dd = wind direction
vv = visibility

Next stations